sensor_id;sensor_type;location;lat;lon;timestamp;P1;durP1;ratioP1;P2;durP2;ratioP2
3309;SDS011;1667;53.238;10.394;2023-07-29T00:01:44;9.10;;;5.70;;
3309;SDS011;1667;53.238;10.394;2023-07-29T00:06:43;2.77;;;2.57;;
3309;SDS011;1667;53.238;10.394;2023-07-29T00:11:43;3.57;;;2.80;;
3309;SDS011;1667;53.238;10.394;2023-07-29T00:16:41;5.00;;;4.20;;
3309;SDS011;1667;53.238;10.394;2023-07-29T00:21:40;3.80;;;3.50;;
3309;SDS011;1667;53.238;10.394;2023-07-29T00:26:39;3.80;;;2.93;;
3309;SDS011;1667;53.238;10.394;2023-07-29T00:31:39;2.80;;;2.60;;
3309;SDS011;1667;53.238;10.394;2023-07-29T00:36:47;5.00;;;4.27;;
3309;SDS011;1667;53.238;10.394;2023-07-29T00:41:45;4.77;;;3.90;;
3309;SDS011;1667;53.238;10.394;2023-07-29T00:46:46;4.03;;;3.60;;
3309;SDS011;1667;53.238;10.394;2023-07-29T00:51:45;4.93;;;4.10;;
3309;SDS011;1667;53.238;10.394;2023-07-29T00:56:44;3.37;;;3.07;;
3309;SDS011;1667;53.238;10.394;2023-07-29T01:01:43;5.33;;;1.90;;
3309;SDS011;1667;53.238;10.394;2023-07-29T01:06:45;7.20;;;4.30;;
3309;SDS011;1667;53.238;10.394;2023-07-29T01:11:52;3.00;;;2.80;;
3309;SDS011;1667;53.238;10.394;2023-07-29T01:17:00;2.87;;;2.67;;
3309;SDS011;1667;53.238;10.394;2023-07-29T01:22:03;3.33;;;3.03;;
3309;SDS011;1667;53.238;10.394;2023-07-29T01:27:04;2.63;;;2.43;;
3309;SDS011;1667;53.238;10.394;2023-07-29T01:32:04;5.63;;;2.80;;
3309;SDS011;1667;53.238;10.394;2023-07-29T01:37:08;4.10;;;3.70;;
3309;SDS011;1667;53.238;10.394;2023-07-29T01:42:09;5.73;;;4.00;;
3309;SDS011;1667;53.238;10.394;2023-07-29T01:47:08;4.67;;;3.17;;
3309;SDS011;1667;53.238;10.394;2023-07-29T01:52:09;6.50;;;3.60;;
3309;SDS011;1667;53.238;10.394;2023-07-29T01:57:09;3.50;;;3.20;;
3309;SDS011;1667;53.238;10.394;2023-07-29T02:02:08;4.10;;;3.70;;
3309;SDS011;1667;53.238;10.394;2023-07-29T02:07:06;3.87;;;3.47;;
3309;SDS011;1667;53.238;10.394;2023-07-29T02:12:05;4.63;;;4.10;;
3309;SDS011;1667;53.238;10.394;2023-07-29T02:17:08;3.03;;;2.83;;
3309;SDS011;1667;53.238;10.394;2023-07-29T02:22:08;5.50;;;4.37;;
3309;SDS011;1667;53.238;10.394;2023-07-29T02:27:07;4.20;;;3.80;;
3309;SDS011;1667;53.238;10.394;2023-07-29T02:32:06;3.20;;;2.80;;
3309;SDS011;1667;53.238;10.394;2023-07-29T02:37:06;6.63;;;4.30;;
3309;SDS011;1667;53.238;10.394;2023-07-29T02:42:05;5.00;;;4.53;;
3309;SDS011;1667;53.238;10.394;2023-07-29T02:47:03;4.50;;;4.10;;
3309;SDS011;1667;53.238;10.394;2023-07-29T02:52:02;4.47;;;3.93;;
3309;SDS011;1667;53.238;10.394;2023-07-29T02:57:03;4.93;;;3.70;;
3309;SDS011;1667;53.238;10.394;2023-07-29T03:02:02;5.33;;;4.83;;
3309;SDS011;1667;53.238;10.394;2023-07-29T03:07:00;6.13;;;5.53;;
3309;SDS011;1667;53.238;10.394;2023-07-29T03:11:59;5.37;;;4.57;;
3309;SDS011;1667;53.238;10.394;2023-07-29T03:16:59;3.80;;;3.50;;
3309;SDS011;1667;53.238;10.394;2023-07-29T03:22:01;2.97;;;2.77;;
3309;SDS011;1667;53.238;10.394;2023-07-29T03:27:00;5.60;;;4.37;;
3309;SDS011;1667;53.238;10.394;2023-07-29T03:31:59;8.83;;;6.30;;
3309;SDS011;1667;53.238;10.394;2023-07-29T03:36:58;5.03;;;4.50;;
3309;SDS011;1667;53.238;10.394;2023-07-29T03:41:57;8.60;;;6.83;;
3309;SDS011;1667;53.238;10.394;2023-07-29T03:47:10;11.30;;;6.33;;
3309;SDS011;1667;53.238;10.394;2023-07-29T03:52:11;8.70;;;6.27;;
3309;SDS011;1667;53.238;10.394;2023-07-29T03:57:09;7.30;;;6.20;;
3309;SDS011;1667;53.238;10.394;2023-07-29T04:02:09;6.27;;;5.00;;
3309;SDS011;1667;53.238;10.394;2023-07-29T04:07:09;10.23;;;5.83;;
3309;SDS011;1667;53.238;10.394;2023-07-29T04:12:07;7.50;;;6.03;;
3309;SDS011;1667;53.238;10.394;2023-07-29T04:17:06;8.23;;;6.17;;
3309;SDS011;1667;53.238;10.394;2023-07-29T04:22:07;6.87;;;4.97;;
3309;SDS011;1667;53.238;10.394;2023-07-29T04:27:05;5.30;;;4.77;;
3309;SDS011;1667;53.238;10.394;2023-07-29T04:32:04;8.27;;;6.83;;
3309;SDS011;1667;53.238;10.394;2023-07-29T04:37:03;5.97;;;4.47;;
3309;SDS011;1667;53.238;10.394;2023-07-29T04:42:04;6.03;;;5.03;;
3309;SDS011;1667;53.238;10.394;2023-07-29T04:47:04;6.20;;;5.60;;
3309;SDS011;1667;53.238;10.394;2023-07-29T04:52:03;4.87;;;4.40;;
3309;SDS011;1667;53.238;10.394;2023-07-29T04:57:02;5.63;;;4.90;;
3309;SDS011;1667;53.238;10.394;2023-07-29T05:02:02;6.37;;;5.73;;
3309;SDS011;1667;53.238;10.394;2023-07-29T05:07:01;7.00;;;5.97;;
3309;SDS011;1667;53.238;10.394;2023-07-29T05:11:59;9.40;;;7.10;;
3309;SDS011;1667;53.238;10.394;2023-07-29T05:16:59;6.80;;;6.10;;
3309;SDS011;1667;53.238;10.394;2023-07-29T05:21:58;6.40;;;5.00;;
3309;SDS011;1667;53.238;10.394;2023-07-29T05:26:57;5.30;;;4.33;;
3309;SDS011;1667;53.238;10.394;2023-07-29T05:31:56;10.20;;;8.67;;
3309;SDS011;1667;53.238;10.394;2023-07-29T05:36:58;9.20;;;7.10;;
3309;SDS011;1667;53.238;10.394;2023-07-29T05:41:56;6.27;;;5.67;;
3309;SDS011;1667;53.238;10.394;2023-07-29T05:46:55;4.97;;;4.50;;
3309;SDS011;1667;53.238;10.394;2023-07-29T05:51:54;8.67;;;7.77;;
3309;SDS011;1667;53.238;10.394;2023-07-29T05:56:54;6.10;;;4.80;;
3309;SDS011;1667;53.238;10.394;2023-07-29T06:01:52;5.53;;;4.90;;
3309;SDS011;1667;53.238;10.394;2023-07-29T06:06:51;4.93;;;4.47;;
3309;SDS011;1667;53.238;10.394;2023-07-29T06:11:49;6.90;;;4.30;;
3309;SDS011;1667;53.238;10.394;2023-07-29T06:16:52;5.90;;;5.30;;
3309;SDS011;1667;53.238;10.394;2023-07-29T06:21:51;4.60;;;4.20;;
3309;SDS011;1667;53.238;10.394;2023-07-29T06:26:53;8.13;;;5.90;;
3309;SDS011;1667;53.238;10.394;2023-07-29T06:31:53;6.90;;;5.73;;
3309;SDS011;1667;53.238;10.394;2023-07-29T06:36:52;5.57;;;4.40;;
3309;SDS011;1667;53.238;10.394;2023-07-29T06:41:50;6.33;;;5.20;;
3309;SDS011;1667;53.238;10.394;2023-07-29T06:46:49;5.40;;;4.53;;
3309;SDS011;1667;53.238;10.394;2023-07-29T06:51:49;5.90;;;4.87;;
3309;SDS011;1667;53.238;10.394;2023-07-29T06:56:47;8.03;;;6.23;;
3309;SDS011;1667;53.238;10.394;2023-07-29T07:01:46;5.67;;;4.37;;
3309;SDS011;1667;53.238;10.394;2023-07-29T07:06:45;4.70;;;4.10;;
3309;SDS011;1667;53.238;10.394;2023-07-29T07:11:44;4.97;;;4.47;;
3309;SDS011;1667;53.238;10.394;2023-07-29T07:16:43;3.27;;;2.73;;
3309;SDS011;1667;53.238;10.394;2023-07-29T07:21:41;3.50;;;3.20;;
3309;SDS011;1667;53.238;10.394;2023-07-29T07:26:40;5.43;;;3.53;;
3309;SDS011;1667;53.238;10.394;2023-07-29T07:31:39;2.73;;;2.53;;
3309;SDS011;1667;53.238;10.394;2023-07-29T07:36:38;2.90;;;2.70;;
3309;SDS011;1667;53.238;10.394;2023-07-29T07:41:40;3.27;;;2.20;;
3309;SDS011;1667;53.238;10.394;2023-07-29T07:46:41;2.57;;;2.37;;
3309;SDS011;1667;53.238;10.394;2023-07-29T07:51:39;2.80;;;2.60;;
3309;SDS011;1667;53.238;10.394;2023-07-29T07:56:38;2.57;;;2.40;;
3309;SDS011;1667;53.238;10.394;2023-07-29T08:01:36;2.70;;;2.50;;
3309;SDS011;1667;53.238;10.394;2023-07-29T08:06:54;4.33;;;3.93;;
3309;SDS011;1667;53.238;10.394;2023-07-29T08:11:52;3.87;;;3.57;;
3309;SDS011;1667;53.238;10.394;2023-07-29T08:16:51;3.67;;;3.40;;
3309;SDS011;1667;53.238;10.394;2023-07-29T08:21:49;3.83;;;3.53;;
3309;SDS011;1667;53.238;10.394;2023-07-29T08:26:50;3.67;;;3.37;;
3309;SDS011;1667;53.238;10.394;2023-07-29T08:31:49;4.97;;;3.97;;
3309;SDS011;1667;53.238;10.394;2023-07-29T08:36:48;3.63;;;3.43;;
3309;SDS011;1667;53.238;10.394;2023-07-29T08:41:49;3.90;;;3.60;;
3309;SDS011;1667;53.238;10.394;2023-07-29T08:46:53;5.00;;;4.50;;
3309;SDS011;1667;53.238;10.394;2023-07-29T08:51:54;5.60;;;4.80;;
3309;SDS011;1667;53.238;10.394;2023-07-29T08:56:56;4.53;;;4.13;;
3309;SDS011;1667;53.238;10.394;2023-07-29T09:01:55;6.83;;;5.57;;
3309;SDS011;1667;53.238;10.394;2023-07-29T09:06:55;6.57;;;5.90;;
3309;SDS011;1667;53.238;10.394;2023-07-29T09:17:17;8.60;;;6.47;;
3309;SDS011;1667;53.238;10.394;2023-07-29T09:22:17;7.80;;;6.20;;
3309;SDS011;1667;53.238;10.394;2023-07-29T09:27:24;10.70;;;6.70;;
3309;SDS011;1667;53.238;10.394;2023-07-29T09:32:24;3.93;;;3.43;;
3309;SDS011;1667;53.238;10.394;2023-07-29T09:37:23;5.30;;;2.80;;
3309;SDS011;1667;53.238;10.394;2023-07-29T09:48:14;3.60;;;2.90;;
3309;SDS011;1667;53.238;10.394;2023-07-29T09:53:16;3.60;;;3.30;;
3309;SDS011;1667;53.238;10.394;2023-07-29T09:58:16;5.60;;;4.50;;
3309;SDS011;1667;53.238;10.394;2023-07-29T10:03:25;4.17;;;3.77;;
3309;SDS011;1667;53.238;10.394;2023-07-29T10:08:24;5.43;;;4.27;;
3309;SDS011;1667;53.238;10.394;2023-07-29T10:13:23;6.23;;;5.60;;
3309;SDS011;1667;53.238;10.394;2023-07-29T10:18:25;8.83;;;6.83;;
3309;SDS011;1667;53.238;10.394;2023-07-29T10:23:25;7.60;;;6.73;;
3309;SDS011;1667;53.238;10.394;2023-07-29T10:28:25;10.60;;;8.60;;
3309;SDS011;1667;53.238;10.394;2023-07-29T10:33:28;9.83;;;7.50;;
3309;SDS011;1667;53.238;10.394;2023-07-29T10:38:29;9.93;;;7.50;;
3309;SDS011;1667;53.238;10.394;2023-07-29T10:43:31;8.70;;;7.30;;
3309;SDS011;1667;53.238;10.394;2023-07-29T10:48:41;7.60;;;6.87;;
3309;SDS011;1667;53.238;10.394;2023-07-29T10:53:41;7.73;;;6.60;;
3309;SDS011;1667;53.238;10.394;2023-07-29T10:58:41;9.77;;;8.50;;
3309;SDS011;1667;53.238;10.394;2023-07-29T11:03:42;6.70;;;6.00;;
3309;SDS011;1667;53.238;10.394;2023-07-29T11:09:00;8.17;;;7.37;;
3309;SDS011;1667;53.238;10.394;2023-07-29T11:13:58;9.20;;;8.27;;
3309;SDS011;1667;53.238;10.394;2023-07-29T11:18:59;10.00;;;7.40;;
3309;SDS011;1667;53.238;10.394;2023-07-29T11:23:58;13.43;;;8.13;;
3309;SDS011;1667;53.238;10.394;2023-07-29T11:28:57;9.60;;;8.60;;
3309;SDS011;1667;53.238;10.394;2023-07-29T11:33:56;6.63;;;6.03;;
3309;SDS011;1667;53.238;10.394;2023-07-29T11:38:57;9.93;;;8.87;;
3309;SDS011;1667;53.238;10.394;2023-07-29T11:43:55;8.77;;;7.30;;
3309;SDS011;1667;53.238;10.394;2023-07-29T11:48:54;6.23;;;5.63;;
3309;SDS011;1667;53.238;10.394;2023-07-29T11:53:54;6.20;;;5.60;;
3309;SDS011;1667;53.238;10.394;2023-07-29T11:58:53;6.17;;;5.57;;
3309;SDS011;1667;53.238;10.394;2023-07-29T12:03:52;5.77;;;5.20;;
3309;SDS011;1667;53.238;10.394;2023-07-29T12:08:51;6.00;;;5.50;;
3309;SDS011;1667;53.238;10.394;2023-07-29T12:13:52;7.10;;;6.10;;
3309;SDS011;1667;53.238;10.394;2023-07-29T12:18:51;6.83;;;6.20;;
3309;SDS011;1667;53.238;10.394;2023-07-29T12:23:50;5.17;;;4.73;;
3309;SDS011;1667;53.238;10.394;2023-07-29T12:28:48;3.93;;;3.67;;
3309;SDS011;1667;53.238;10.394;2023-07-29T12:33:48;4.40;;;4.00;;
3309;SDS011;1667;53.238;10.394;2023-07-29T12:38:47;3.83;;;3.53;;
3309;SDS011;1667;53.238;10.394;2023-07-29T12:43:45;4.40;;;4.00;;
3309;SDS011;1667;53.238;10.394;2023-07-29T12:48:45;3.40;;;3.10;;
3309;SDS011;1667;53.238;10.394;2023-07-29T12:53:44;3.70;;;3.50;;
3309;SDS011;1667;53.238;10.394;2023-07-29T12:58:42;3.53;;;3.17;;
3309;SDS011;1667;53.238;10.394;2023-07-29T13:03:41;3.00;;;2.80;;
3309;SDS011;1667;53.238;10.394;2023-07-29T13:08:41;3.70;;;3.03;;
3309;SDS011;1667;53.238;10.394;2023-07-29T13:13:39;3.80;;;3.17;;
3309;SDS011;1667;53.238;10.394;2023-07-29T13:18:38;3.00;;;2.80;;
3309;SDS011;1667;53.238;10.394;2023-07-29T13:23:36;2.27;;;2.10;;
3309;SDS011;1667;53.238;10.394;2023-07-29T13:28:36;2.83;;;2.63;;
3309;SDS011;1667;53.238;10.394;2023-07-29T13:33:35;2.63;;;2.53;;
3309;SDS011;1667;53.238;10.394;2023-07-29T13:38:33;2.40;;;2.20;;
3309;SDS011;1667;53.238;10.394;2023-07-29T13:43:32;2.10;;;2.00;;
3309;SDS011;1667;53.238;10.394;2023-07-29T13:48:32;2.33;;;2.13;;
3309;SDS011;1667;53.238;10.394;2023-07-29T13:53:32;2.07;;;1.97;;
3309;SDS011;1667;53.238;10.394;2023-07-29T13:58:30;1.90;;;1.80;;
3309;SDS011;1667;53.238;10.394;2023-07-29T14:03:29;2.50;;;1.93;;
3309;SDS011;1667;53.238;10.394;2023-07-29T14:08:29;3.63;;;1.60;;
3309;SDS011;1667;53.238;10.394;2023-07-29T14:13:27;2.33;;;2.13;;
3309;SDS011;1667;53.238;10.394;2023-07-29T14:18:26;2.00;;;1.77;;
3309;SDS011;1667;53.238;10.394;2023-07-29T14:23:24;1.77;;;1.67;;
3309;SDS011;1667;53.238;10.394;2023-07-29T14:28:24;1.57;;;1.43;;
3309;SDS011;1667;53.238;10.394;2023-07-29T14:33:22;1.80;;;1.70;;
3309;SDS011;1667;53.238;10.394;2023-07-29T14:38:21;2.87;;;2.43;;
3309;SDS011;1667;53.238;10.394;2023-07-29T14:43:20;2.00;;;1.80;;
3309;SDS011;1667;53.238;10.394;2023-07-29T14:48:20;1.77;;;1.67;;
3309;SDS011;1667;53.238;10.394;2023-07-29T14:53:20;2.50;;;1.60;;
3309;SDS011;1667;53.238;10.394;2023-07-29T14:58:18;1.60;;;1.50;;
3309;SDS011;1667;53.238;10.394;2023-07-29T15:03:17;1.83;;;1.73;;
3309;SDS011;1667;53.238;10.394;2023-07-29T15:08:17;1.30;;;1.20;;
3309;SDS011;1667;53.238;10.394;2023-07-29T15:13:15;2.00;;;1.90;;
3309;SDS011;1667;53.238;10.394;2023-07-29T15:18:14;2.03;;;1.47;;
3309;SDS011;1667;53.238;10.394;2023-07-29T15:23:12;1.37;;;1.27;;
3309;SDS011;1667;53.238;10.394;2023-07-29T15:28:12;1.30;;;1.20;;
3309;SDS011;1667;53.238;10.394;2023-07-29T15:33:13;1.43;;;1.33;;
3309;SDS011;1667;53.238;10.394;2023-07-29T15:38:12;1.30;;;1.20;;
3309;SDS011;1667;53.238;10.394;2023-07-29T15:43:10;1.87;;;1.30;;
3309;SDS011;1667;53.238;10.394;2023-07-29T15:48:10;1.67;;;1.20;;
3309;SDS011;1667;53.238;10.394;2023-07-29T15:53:09;3.60;;;1.40;;
3309;SDS011;1667;53.238;10.394;2023-07-29T16:04:09;2.47;;;1.27;;
3309;SDS011;1667;53.238;10.394;2023-07-29T16:09:08;1.30;;;1.20;;
3309;SDS011;1667;53.238;10.394;2023-07-29T16:14:06;2.13;;;1.20;;
3309;SDS011;1667;53.238;10.394;2023-07-29T16:19:05;2.90;;;1.37;;
3309;SDS011;1667;53.238;10.394;2023-07-29T16:24:07;2.10;;;1.20;;
3309;SDS011;1667;53.238;10.394;2023-07-29T16:29:05;1.17;;;1.00;;
3309;SDS011;1667;53.238;10.394;2023-07-29T16:34:04;1.33;;;1.23;;
3309;SDS011;1667;53.238;10.394;2023-07-29T16:39:03;1.43;;;1.33;;
3309;SDS011;1667;53.238;10.394;2023-07-29T16:44:03;1.60;;;1.50;;
3309;SDS011;1667;53.238;10.394;2023-07-29T16:49:01;1.80;;;1.50;;
3309;SDS011;1667;53.238;10.394;2023-07-29T16:54:01;1.93;;;1.53;;
3309;SDS011;1667;53.238;10.394;2023-07-29T16:59:00;1.50;;;1.40;;
3309;SDS011;1667;53.238;10.394;2023-07-29T17:03:59;1.57;;;1.40;;
3309;SDS011;1667;53.238;10.394;2023-07-29T17:08:58;3.97;;;1.23;;
3309;SDS011;1667;53.238;10.394;2023-07-29T17:13:56;1.17;;;1.07;;
3309;SDS011;1667;53.238;10.394;2023-07-29T17:18:55;2.07;;;1.50;;
3309;SDS011;1667;53.238;10.394;2023-07-29T17:23:55;2.07;;;1.20;;
3309;SDS011;1667;53.238;10.394;2023-07-29T17:28:53;4.03;;;2.40;;
3309;SDS011;1667;53.238;10.394;2023-07-29T17:33:52;2.13;;;1.93;;
3309;SDS011;1667;53.238;10.394;2023-07-29T17:38:51;2.40;;;1.90;;
3309;SDS011;1667;53.238;10.394;2023-07-29T17:43:51;2.20;;;2.00;;
3309;SDS011;1667;53.238;10.394;2023-07-29T17:48:49;2.13;;;1.90;;
3309;SDS011;1667;53.238;10.394;2023-07-29T17:53:48;2.33;;;2.20;;
3309;SDS011;1667;53.238;10.394;2023-07-29T17:58:46;2.80;;;2.10;;
3309;SDS011;1667;53.238;10.394;2023-07-29T18:03:46;2.70;;;2.50;;
3309;SDS011;1667;53.238;10.394;2023-07-29T18:08:44;3.43;;;2.33;;
3309;SDS011;1667;53.238;10.394;2023-07-29T18:13:43;2.20;;;2.10;;
3309;SDS011;1667;53.238;10.394;2023-07-29T18:24:06;2.33;;;1.87;;
3309;SDS011;1667;53.238;10.394;2023-07-29T18:29:04;1.80;;;1.70;;
3309;SDS011;1667;53.238;10.394;2023-07-29T18:34:03;2.03;;;1.80;;
3309;SDS011;1667;53.238;10.394;2023-07-29T18:39:03;1.93;;;1.60;;
3309;SDS011;1667;53.238;10.394;2023-07-29T18:44:02;3.97;;;2.07;;
3309;SDS011;1667;53.238;10.394;2023-07-29T18:49:02;2.10;;;1.90;;
3309;SDS011;1667;53.238;10.394;2023-07-29T18:54:04;2.23;;;2.00;;
3309;SDS011;1667;53.238;10.394;2023-07-29T18:59:02;2.03;;;1.83;;
3309;SDS011;1667;53.238;10.394;2023-07-29T19:04:01;1.73;;;1.50;;
3309;SDS011;1667;53.238;10.394;2023-07-29T19:08:59;2.70;;;2.27;;
3309;SDS011;1667;53.238;10.394;2023-07-29T19:13:59;4.87;;;2.40;;
3309;SDS011;1667;53.238;10.394;2023-07-29T19:18:58;2.60;;;2.40;;
3309;SDS011;1667;53.238;10.394;2023-07-29T19:23:57;2.40;;;2.20;;
3309;SDS011;1667;53.238;10.394;2023-07-29T19:28:56;3.50;;;2.10;;
3309;SDS011;1667;53.238;10.394;2023-07-29T19:33:56;2.33;;;2.10;;
3309;SDS011;1667;53.238;10.394;2023-07-29T19:38:54;2.30;;;1.80;;
3309;SDS011;1667;53.238;10.394;2023-07-29T19:43:53;2.03;;;1.83;;
3309;SDS011;1667;53.238;10.394;2023-07-29T19:49:06;1.70;;;1.60;;
3309;SDS011;1667;53.238;10.394;2023-07-29T19:54:04;2.63;;;1.93;;
3309;SDS011;1667;53.238;10.394;2023-07-29T19:59:03;1.97;;;1.87;;
3309;SDS011;1667;53.238;10.394;2023-07-29T20:04:01;2.33;;;2.10;;
3309;SDS011;1667;53.238;10.394;2023-07-29T20:09:02;9.90;;;3.50;;
3309;SDS011;1667;53.238;10.394;2023-07-29T20:14:00;2.43;;;2.23;;
3309;SDS011;1667;53.238;10.394;2023-07-29T20:19:00;4.50;;;2.43;;
3309;SDS011;1667;53.238;10.394;2023-07-29T20:23:59;3.53;;;2.50;;
3309;SDS011;1667;53.238;10.394;2023-07-29T20:29:02;2.43;;;2.20;;
3309;SDS011;1667;53.238;10.394;2023-07-29T20:34:01;2.10;;;1.90;;
3309;SDS011;1667;53.238;10.394;2023-07-29T20:38:59;2.83;;;2.30;;
3309;SDS011;1667;53.238;10.394;2023-07-29T20:43:58;2.10;;;1.90;;
3309;SDS011;1667;53.238;10.394;2023-07-29T20:48:58;3.13;;;2.53;;
3309;SDS011;1667;53.238;10.394;2023-07-29T20:53:56;2.50;;;2.30;;
3309;SDS011;1667;53.238;10.394;2023-07-29T20:58:55;2.40;;;2.20;;
3309;SDS011;1667;53.238;10.394;2023-07-29T21:03:54;2.67;;;2.47;;
3309;SDS011;1667;53.238;10.394;2023-07-29T21:08:54;3.27;;;2.90;;
3309;SDS011;1667;53.238;10.394;2023-07-29T21:13:52;2.20;;;2.00;;
3309;SDS011;1667;53.238;10.394;2023-07-29T21:18:50;2.20;;;2.10;;
3309;SDS011;1667;53.238;10.394;2023-07-29T21:23:49;2.50;;;2.30;;
3309;SDS011;1667;53.238;10.394;2023-07-29T21:28:49;2.40;;;2.20;;
3309;SDS011;1667;53.238;10.394;2023-07-29T21:33:47;4.23;;;3.00;;
3309;SDS011;1667;53.238;10.394;2023-07-29T21:38:46;2.83;;;2.60;;
3309;SDS011;1667;53.238;10.394;2023-07-29T21:43:44;2.27;;;2.17;;
3309;SDS011;1667;53.238;10.394;2023-07-29T21:48:44;4.73;;;2.43;;
3309;SDS011;1667;53.238;10.394;2023-07-29T21:53:43;3.30;;;2.20;;
3309;SDS011;1667;53.238;10.394;2023-07-29T21:58:41;6.23;;;2.80;;
3309;SDS011;1667;53.238;10.394;2023-07-29T22:03:40;3.13;;;2.20;;
3309;SDS011;1667;53.238;10.394;2023-07-29T22:08:40;2.00;;;1.90;;
3309;SDS011;1667;53.238;10.394;2023-07-29T22:13:38;2.00;;;1.90;;
3309;SDS011;1667;53.238;10.394;2023-07-29T22:24:27;2.90;;;2.43;;
3309;SDS011;1667;53.238;10.394;2023-07-29T22:29:26;3.23;;;2.93;;
3309;SDS011;1667;53.238;10.394;2023-07-29T22:34:24;3.20;;;2.00;;
3309;SDS011;1667;53.238;10.394;2023-07-29T22:39:23;2.93;;;2.43;;
3309;SDS011;1667;53.238;10.394;2023-07-29T22:44:23;3.40;;;3.10;;
3309;SDS011;1667;53.238;10.394;2023-07-29T22:49:22;3.13;;;2.57;;
3309;SDS011;1667;53.238;10.394;2023-07-29T22:54:20;3.50;;;2.77;;
3309;SDS011;1667;53.238;10.394;2023-07-29T22:59:19;2.47;;;2.10;;
3309;SDS011;1667;53.238;10.394;2023-07-29T23:04:19;2.30;;;2.20;;
3309;SDS011;1667;53.238;10.394;2023-07-29T23:09:18;3.13;;;2.83;;
3309;SDS011;1667;53.238;10.394;2023-07-29T23:14:16;2.33;;;2.13;;
3309;SDS011;1667;53.238;10.394;2023-07-29T23:19:15;4.50;;;3.13;;
3309;SDS011;1667;53.238;10.394;2023-07-29T23:24:15;3.90;;;2.77;;
3309;SDS011;1667;53.238;10.394;2023-07-29T23:29:13;3.37;;;2.80;;
3309;SDS011;1667;53.238;10.394;2023-07-29T23:34:12;3.03;;;2.47;;
3309;SDS011;1667;53.238;10.394;2023-07-29T23:39:10;2.80;;;2.07;;
3309;SDS011;1667;53.238;10.394;2023-07-29T23:44:10;2.20;;;2.00;;
3309;SDS011;1667;53.238;10.394;2023-07-29T23:49:09;2.30;;;2.10;;
3309;SDS011;1667;53.238;10.394;2023-07-29T23:54:07;1.90;;;1.80;;
3309;SDS011;1667;53.238;10.394;2023-07-29T23:59:06;3.93;;;3.20;;
